Time;durP1;ratioP1;P1;durP2;ratioP2;P2;SDS_P1;SDS_P2;PMS_P1;PMS_P2;Temp;Humidity;BMP_temperature;BMP_pressure;BME280_temperature;BME280_humidity;BME280_pressure;Samples;Min_cycle;Max_cycle;Signal;HPM_P1;HPM_P2
2023/07/12 07:23:30;;;;;;;5.35;3.10;;;;;;;-145.79;68.02;76688.44;5316914;27;20703;-75
2023/07/12 07:26:07;;;;;;;7.35;3.42;;;;;;;-145.79;67.44;76692.69;5301476;28;20024;-73
2023/07/12 07:28:39;;;;;;;9.20;3.72;;;;;;;-145.79;67.08;76686.34;5299726;28;20032;-74
2023/07/12 07:31:13;;;;;;;3.95;2.65;;;;;;;-145.79;67.01;76677.84;5300783;28;20372;-74
2023/07/12 07:33:46;;;;;;;7.55;3.47;;;;;;;-145.79;65.85;76696.94;5300683;28;20043;-73
2023/07/12 07:36:21;;;;;;;6.30;3.75;;;;;;;-145.79;65.93;76694.81;5300183;28;20017;-73
2023/07/12 07:38:52;;;;;;;7.03;3.08;;;;;;;-145.79;65.95;76711.75;5297268;28;20032;-75
2023/07/12 07:41:24;;;;;;;5.53;3.47;;;;;;;-145.79;65.47;76711.75;5301122;28;20020;-73
2023/07/12 07:43:55;;;;;;;8.95;4.20;;;;;;;-145.79;65.53;76694.81;5299151;28;20016;-74
2023/07/12 07:46:27;;;;;;;5.55;2.78;;;;;;;-145.79;65.30;76679.97;5300579;28;20056;-74
2023/07/12 07:48:58;;;;;;;7.85;2.95;;;;;;;-145.79;65.23;76665.16;5297983;28;20023;-74
2023/07/12 07:51:32;;;;;;;4.82;3.13;;;;;;;-145.79;65.05;76665.16;5300368;28;20582;-73
2023/07/12 07:54:04;;;;;;;7.25;3.25;;;;;;;-145.79;64.71;76643.94;5295563;28;20033;-73
2023/07/12 07:56:35;;;;;;;4.38;2.58;;;;;;;-145.79;64.76;76635.47;5293244;28;20028;-75
2023/07/12 07:59:08;;;;;;;4.05;3.00;;;;;;;-145.79;64.41;76652.44;5300235;28;20444;-71
2023/07/12 08:01:39;;;;;;;6.05;3.10;;;;;;;-145.79;63.98;76646.06;5281752;28;20020;-72
2023/07/12 08:04:13;;;;;;;9.07;3.78;;;;;;;-145.79;64.07;76646.06;5300077;28;20094;-72
2023/07/12 08:06:45;;;;;;;12.27;3.88;;;;;;;-145.79;62.55;76654.53;5298361;28;20032;-71
2023/07/12 08:09:16;;;;;;;11.30;3.83;;;;;;;-145.79;62.02;76652.44;5299745;28;20123;-71
2023/07/12 08:11:47;;;;;;;6.38;4.00;;;;;;;-145.79;61.97;76663.03;5299326;28;20510;-74
2023/07/12 08:14:20;;;;;;;7.47;3.47;;;;;;;-145.79;62.77;76660.91;5300027;28;20036;-75
2023/07/12 08:16:52;;;;;;;10.30;3.85;;;;;;;-145.79;63.01;76677.84;5298909;28;20384;-75
2023/07/12 08:19:23;;;;;;;7.93;3.20;;;;;;;-145.79;63.28;76667.25;5299594;28;20040;-77
2023/07/12 08:21:54;;;;;;;7.32;3.30;;;;;;;-145.79;63.08;76658.78;5285480;28;20056;-76
2023/07/12 08:24:26;;;;;;;10.70;4.05;;;;;;;-145.79;63.27;76663.03;5274593;28;20403;-76
2023/07/12 08:26:59;;;;;;;9.55;3.35;;;;;;;-145.79;62.53;76665.16;5278337;28;20042;-77
2023/07/12 08:29:30;;;;;;;8.13;3.10;;;;;;;-145.79;63.29;76667.25;5279146;28;20029;-74
2023/07/12 08:32:02;;;;;;;6.18;3.05;;;;;;;-145.79;62.95;76654.53;5277579;28;20016;-75
2023/07/12 08:34:33;;;;;;;7.32;4.40;;;;;;;-145.79;62.31;76654.53;5265591;28;20039;-74
2023/07/12 08:37:05;;;;;;;17.25;13.85;;;;;;;-145.79;62.66;76660.91;5265085;28;20040;-75
2023/07/12 08:39:36;;;;;;;12.75;4.95;;;;;;;-145.79;62.81;76652.44;5264899;28;20025;-76
2023/07/12 08:42:18;;;;;;;9.77;3.65;;;;;;;-145.79;63.03;76650.31;5265932;28;20071;-76
2023/07/12 08:44:50;;;;;;;8.18;3.22;;;;;;;-145.79;63.22;76667.25;5268243;28;20041;-75
2023/07/12 08:47:30;;;;;;;24.77;4.03;;;;;;;-145.79;62.96;76660.91;5261457;28;20021;-76
2023/07/12 08:50:11;;;;;;;6.40;3.53;;;;;;;-145.79;62.11;76652.44;5267814;28;20037;-74
2023/07/12 08:52:44;;;;;;;10.13;3.53;;;;;;;-145.79;62.02;76656.66;5258042;28;20048;-74
2023/07/12 08:55:20;;;;;;;6.30;3.63;;;;;;;-145.79;61.07;76652.44;5266355;28;20467;-72
2023/07/12 08:58:03;;;;;;;9.93;4.22;;;;;;;-145.79;60.87;76652.44;5264305;28;20525;-71
2023/07/12 09:00:39;;;;;;;9.75;3.72;;;;;;;-145.79;60.33;76641.84;5262296;28;20025;-71
2023/07/12 09:03:10;;;;;;;9.27;3.60;;;;;;;-145.79;60.25;76648.19;5263661;28;20059;-71
2023/07/12 09:05:41;;;;;;;7.30;4.00;;;;;;;-145.79;61.49;76629.13;5263900;28;20025;-71
2023/07/12 09:08:17;;;;;;;7.13;3.38;;;;;;;-145.79;59.25;76605.81;5263385;28;20028;-72
2023/07/12 09:10:56;;;;;;;6.68;3.50;;;;;;;-145.79;57.61;76588.84;5263446;28;20028;-72
2023/07/12 09:13:38;;;;;;;5.85;3.15;;;;;;;-145.79;57.86;76567.66;5263002;28;20062;-71
2023/07/12 09:16:26;;;;;;;6.00;3.88;;;;;;;-145.79;58.04;76533.75;5257560;28;20106;-72
2023/07/12 09:19:01;;;;;;;6.38;3.30;;;;;;;-145.79;57.28;76538.00;5262326;28;20104;-72
2023/07/12 09:21:37;;;;;;;6.95;3.22;;;;;;;-145.79;57.47;76531.63;5267385;28;20040;-71
2023/07/12 09:24:13;;;;;;;6.05;3.38;;;;;;;-145.79;56.88;76527.38;5264016;28;20029;-70
2023/07/12 09:26:44;;;;;;;8.57;4.85;;;;;;;-145.79;55.00;76506.19;5272901;28;20029;-71
2023/07/12 09:29:22;;;;;;;4.75;3.50;;;;;;;-145.79;55.15;76482.88;5274063;28;20024;-71
2023/07/12 09:31:59;;;;;;;7.55;3.60;;;;;;;-145.79;54.51;76457.47;5273360;28;20028;-71
2023/07/12 09:34:39;;;;;;;5.50;3.40;;;;;;;-145.79;54.15;76485.00;5274985;28;20128;-71
2023/07/12 09:37:20;;;;;;;7.60;3.53;;;;;;;-145.79;54.54;76465.94;5274383;28;20024;-70
2023/07/12 09:39:59;;;;;;;8.52;3.55;;;;;;;-145.79;54.19;76463.81;5275595;28;20025;-71
2023/07/12 09:42:31;;;;;;;6.82;2.70;;;;;;;-145.79;54.20;76438.38;5266288;28;20120;-71
2023/07/12 09:45:04;;;;;;;5.85;2.97;;;;;;;-145.79;54.39;76474.41;5270536;28;20127;-70
2023/07/12 09:47:40;;;;;;;6.68;3.17;;;;;;;-145.79;54.56;76478.66;5272212;28;20440;-71
2023/07/12 09:50:18;;;;;;;6.90;3.45;;;;;;;-145.79;54.82;76470.19;5273784;28;20115;-70
2023/07/12 09:53:05;;;;;;;6.78;3.13;;;;;;;-145.79;53.87;76470.19;5271448;28;20499;-70
2023/07/12 09:55:56;;;;;;;7.00;3.60;;;;;;;-145.79;53.65;76427.78;5261961;28;20170;-70
2023/07/12 09:58:35;;;;;;;4.68;2.80;;;;;;;-145.79;53.25;76391.78;5273890;28;20029;-69
2023/07/12 10:01:56;;;;;;;5.25;2.53;;;;;;;-145.79;52.47;76376.94;5275197;28;20071;-71
2023/07/12 10:04:41;;;;;;;5.63;2.30;;;;;;;-145.79;51.88;76385.41;5214653;28;20036;-70
2023/07/12 10:07:35;;;;;;;5.55;2.55;;;;;;;-145.79;53.00;76393.88;5274950;28;20029;-70
2023/07/12 10:10:21;;;;;;;5.55;2.92;;;;;;;-145.79;52.37;76374.81;5264125;28;20029;-72
2023/07/12 10:13:05;;;;;;;8.30;3.72;;;;;;;-145.79;51.33;76381.16;5274882;28;20407;-70
2023/07/12 10:15:39;;;;;;;5.55;2.80;;;;;;;-145.79;50.59;76364.22;5273699;28;20036;-71
2023/07/12 10:18:17;;;;;;;5.82;2.40;;;;;;;-145.79;49.80;76364.22;5270554;28;20383;-71
2023/07/12 10:20:50;;;;;;;5.57;2.42;;;;;;;-145.79;49.99;76357.84;5272019;28;20173;-69
2023/07/12 10:23:26;;;;;;;6.88;2.67;;;;;;;-145.79;50.30;76343.03;5261993;28;20045;-72
2023/07/12 10:26:04;;;;;;;6.90;2.47;;;;;;;-145.79;49.83;76326.06;5262465;28;20175;-70
2023/07/12 10:28:45;;;;;;;7.15;2.45;;;;;;;-145.79;49.48;76330.31;5261971;28;20032;-70
2023/07/12 10:31:43;;;;;;;7.97;2.80;;;;;;;-145.79;50.24;76353.63;5253584;28;20033;-70
2023/07/12 10:34:41;;;;;;;6.25;2.47;;;;;;;-145.79;50.32;76334.56;5254255;28;20360;-71
2023/07/12 10:37:35;;;;;;;5.80;2.33;;;;;;;-145.79;49.54;76311.25;5261657;28;20025;-69
2023/07/12 10:40:21;;;;;;;6.60;2.85;;;;;;;-145.79;49.68;76311.25;5250200;28;20415;-69
2023/07/12 10:42:58;;;;;;;;;;;;;;;-145.79;49.15;76294.28;5252866;28;20033;-69
2023/07/12 10:45:34;;;;;;;6.53;3.00;;;;;;;-145.79;48.80;76302.75;5253405;28;20004;-69
2023/07/12 10:48:10;;;;;;;10.10;4.85;;;;;;;-145.79;48.16;76300.66;5262157;28;20033;-69
2023/07/12 10:50:48;;;;;;;8.35;2.60;;;;;;;-145.79;48.16;76292.16;5261903;28;20020;-70
2023/07/12 10:53:26;;;;;;;8.45;2.80;;;;;;;-145.79;48.66;76283.69;5253390;28;20033;-69
2023/07/12 10:56:19;;;;;;;5.40;2.53;;;;;;;-145.79;48.52;76287.94;5252788;28;20025;-69
2023/07/12 10:59:02;;;;;;;7.05;3.13;;;;;;;-145.79;48.16;76292.16;5254066;28;20028;-72
2023/07/12 11:01:36;;;;;;;5.88;2.33;;;;;;;-145.79;48.12;76285.81;5252039;28;20030;-71
2023/07/12 11:04:12;;;;;;;4.50;2.20;;;;;;;-145.79;47.52;76302.75;5260357;28;20029;-72
2023/07/12 11:06:59;;;;;;;;;;;;;;;-145.79;47.32;76296.41;5254839;28;20397;-70
2023/07/12 11:09:42;;;;;;;7.35;2.25;;;;;;;-145.79;48.10;76328.19;5258684;28;20299;-70
2023/07/12 11:12:15;;;;;;;7.50;2.63;;;;;;;-145.79;47.66;76317.59;5269445;28;20064;-69
2023/07/12 11:14:50;;;;;;;5.50;2.40;;;;;;;-145.79;47.58;76273.09;5260935;28;20021;-70
2023/07/12 11:17:28;;;;;;;6.80;2.50;;;;;;;-145.79;47.22;76279.47;5262020;28;20025;-70
2023/07/12 11:20:04;;;;;;;8.77;2.75;;;;;;;-145.79;46.32;76262.50;5261146;28;20363;-70
2023/07/12 11:22:52;;;;;;;6.18;2.65;;;;;;;-145.79;46.86;76254.03;5267073;28;20106;-69
2023/07/12 11:25:38;;;;;;;4.18;1.90;;;;;;;-145.79;46.65;76254.03;5277887;28;20067;-72
2023/07/12 11:28:13;;;;;;;17.65;16.13;;;;;;;-145.79;45.53;76247.66;5260374;28;20439;-69
2023/07/12 11:30:44;;;;;;;7.43;2.67;;;;;;;-145.79;45.03;76226.47;5275570;28;20163;-69
2023/07/12 11:33:32;;;;;;;5.88;2.05;;;;;;;-145.79;45.23;76215.88;5270332;28;20020;-69
2023/07/12 11:36:08;;;;;;;3.70;2.10;;;;;;;-145.79;44.88;76215.88;5257531;28;20021;-69
2023/07/12 11:38:43;;;;;;;7.72;2.35;;;;;;;-145.79;44.98;76215.88;5273199;28;20447;-69
2023/07/12 11:41:35;;;;;;;6.57;1.98;;;;;;;-145.79;43.95;76192.56;5260914;28;20496;-69
2023/07/12 11:44:14;;;;;;;4.45;2.45;;;;;;;-145.79;44.09;76205.28;5270040;28;20047;-68
2023/07/12 11:46:50;;;;;;;7.13;2.05;;;;;;;-145.79;44.42;76201.06;5273070;28;20028;-69
2023/07/12 11:49:31;;;;;;;8.60;2.45;;;;;;;-145.79;44.11;76196.81;5270059;28;20060;-69
2023/07/12 11:52:11;;;;;;;7.22;3.13;;;;;;;-145.79;43.42;76243.44;5249182;28;20481;-69
2023/07/12 11:54:42;;;;;;;6.72;2.35;;;;;;;-145.79;44.06;76226.47;5258124;28;20032;-68
2023/07/12 11:57:14;;;;;;;7.38;2.28;;;;;;;-145.79;43.59;76230.72;5256884;28;20029;-67
2023/07/12 11:59:47;;;;;;;5.20;2.40;;;;;;;-145.79;44.17;76228.59;5261014;28;20139;-68
2023/07/12 12:02:21;;;;;;;8.93;2.50;;;;;;;-145.79;44.36;76215.88;5267671;28;20032;-69
2023/07/12 12:04:59;;;;;;;7.55;2.30;;;;;;;-145.79;44.48;76220.13;5270288;28;20441;-70
2023/07/12 12:07:37;;;;;;;6.82;2.33;;;;;;;-145.79;44.54;76190.47;5271233;28;20029;-73
2023/07/12 12:10:26;;;;;;;4.22;2.42;;;;;;;-145.79;43.61;76150.19;5277015;28;20036;-71
2023/07/12 12:12:58;;;;;;;4.32;2.00;;;;;;;-145.79;42.74;76169.25;5265276;28;20021;-71
2023/07/12 12:15:30;;;;;;;4.75;2.00;;;;;;;-145.79;42.65;76181.97;5273334;28;20047;-71
2023/07/12 12:18:13;;;;;;;6.70;2.13;;;;;;;-145.79;43.27;76198.94;5282918;28;20422;-72
2023/07/12 12:21:11;;;;;;;6.07;2.20;;;;;;;-145.79;43.26;76207.41;5268278;28;20033;-73
2023/07/12 12:23:57;;;;;;;5.53;2.55;;;;;;;-145.79;42.72;76224.38;5249611;28;20053;-73
2023/07/12 12:26:32;;;;;;;6.22;2.38;;;;;;;-145.79;43.06;76228.59;5265085;28;20033;-72
2023/07/12 12:29:12;;;;;;;;;;;;;;;-145.79;43.92;76218.00;5264560;28;20040;-71
2023/07/12 12:31:53;;;;;;;6.63;2.60;;;;;;;-145.79;45.77;76270.97;5263878;28;19916;-71
2023/07/12 12:34:36;;;;;;;7.93;3.28;;;;;;;-145.79;46.91;76319.72;5257408;28;20415;-71
2023/07/12 12:37:10;;;;;;;5.47;3.13;;;;;;;-145.79;47.50;76311.25;5260340;28;20033;-71
2023/07/12 12:39:58;;;;;;;4.15;2.95;;;;;;;-145.79;47.33;76296.41;5263942;28;20031;-71
2023/07/12 12:42:31;;;;;;;8.63;4.55;;;;;;;-145.79;47.81;76345.16;5264668;28;20535;-69
2023/07/12 12:45:03;;;;;;;8.80;3.42;;;;;;;-145.79;47.91;76372.69;5264031;28;20036;-71
2023/07/12 12:47:34;;;;;;;6.68;3.53;;;;;;;-145.79;48.22;76366.34;5265158;28;20017;-72
2023/07/12 12:50:18;;;;;;;6.50;3.00;;;;;;;-145.79;47.25;76374.81;5264880;28;20037;-71
2023/07/12 12:52:50;;;;;;;19.23;17.42;;;;;;;-145.79;47.08;76351.50;5263481;28;20342;-70
2023/07/12 12:55:21;;;;;;;6.43;2.70;;;;;;;-145.79;46.98;76353.63;5263974;28;20021;-72
2023/07/12 12:57:53;;;;;;;4.35;2.05;;;;;;;-145.79;45.21;76340.91;5264572;28;20033;-74
2023/07/12 13:00:30;;;;;;;4.72;2.22;;;;;;;-145.79;45.22;76343.03;5255457;28;20045;-73
2023/07/12 13:03:01;;;;;;;4.93;2.17;;;;;;;-145.79;45.58;76381.16;5264047;28;20108;-73
2023/07/12 13:05:34;;;;;;;4.93;2.20;;;;;;;-145.79;45.17;76387.53;5263643;28;20108;-73
2023/07/12 13:08:16;;;;;;;5.93;2.28;;;;;;;-145.79;45.48;76385.41;5264990;28;20433;-73
2023/07/12 13:10:47;;;;;;;4.55;2.40;;;;;;;-145.79;45.41;76391.78;5264085;28;20464;-74
2023/07/12 13:13:20;;;;;;;5.68;2.88;;;;;;;-145.79;47.55;76415.06;5263795;28;20063;-73
2023/07/12 13:15:51;;;;;;;4.53;2.42;;;;;;;-145.79;48.19;76406.59;5266598;28;20086;-74
2023/07/12 13:18:25;;;;;;;3.78;2.75;;;;;;;-145.79;47.30;76359.97;5264874;28;20407;-73
2023/07/12 13:20:57;;;;;;;5.90;2.92;;;;;;;-145.79;47.08;76381.16;5262215;28;20020;-73
2023/07/12 13:23:28;;;;;;;5.65;2.60;;;;;;;-145.79;46.98;76389.66;5274535;28;20040;-73
2023/07/12 13:25:59;;;;;;;4.15;2.42;;;;;;;-145.79;46.99;76355.75;5283116;28;20238;-71
2023/07/12 13:28:31;;;;;;;6.55;2.88;;;;;;;-145.79;46.37;76345.16;5277839;28;20028;-73
2023/07/12 13:31:02;;;;;;;7.93;3.25;;;;;;;-145.79;45.95;76287.94;5282758;28;20039;-72
2023/07/12 13:33:33;;;;;;;46.33;41.83;;;;;;;-145.79;45.48;76292.16;5282775;28;20060;-70
2023/07/12 13:36:08;;;;;;;12.07;10.80;;;;;;;-145.79;45.67;76270.97;5284517;28;20025;-72
2023/07/12 13:38:39;;;;;;;4.97;2.47;;;;;;;-145.79;44.61;76321.84;5283260;28;20028;-73
2023/07/12 13:41:11;;;;;;;3.70;2.22;;;;;;;-145.79;44.71;76313.34;5276554;28;20427;-73
2023/07/12 13:43:46;;;;;;;5.78;2.97;;;;;;;-145.79;45.17;76338.78;5284685;28;20028;-74
2023/07/12 13:46:17;;;;;;;5.30;2.70;;;;;;;-145.79;45.65;76317.59;5282200;28;20395;-72
2023/07/12 13:48:48;;;;;;;5.90;2.33;;;;;;;-145.79;45.50;76334.56;5277429;28;20275;-73
2023/07/12 13:51:23;;;;;;;3.60;2.13;;;;;;;-145.79;45.15;76321.84;5282492;28;20064;-74
2023/07/12 13:53:55;;;;;;;4.55;2.28;;;;;;;-145.79;44.66;76357.84;5278221;28;20025;-72
2023/07/12 13:56:26;;;;;;;5.97;3.80;;;;;;;-145.79;44.65;76340.91;5282040;28;20028;-73
2023/07/12 13:58:57;;;;;;;6.07;2.50;;;;;;;-145.79;44.95;76368.47;5283624;28;20472;-72
2023/07/12 14:01:31;;;;;;;5.28;2.58;;;;;;;-145.79;45.25;76389.66;5277458;28;20032;-73
2023/07/12 14:04:10;;;;;;;11.98;8.95;;;;;;;-145.79;46.02;76391.78;5279828;28;20371;-72
2023/07/12 14:06:45;;;;;;;5.50;2.80;;;;;;;-145.79;46.16;76398.13;5270910;28;20044;-74
2023/07/12 14:09:17;;;;;;;4.95;2.28;;;;;;;-145.79;45.56;76368.47;5281270;28;20024;-76
2023/07/12 14:11:50;;;;;;;3.97;2.33;;;;;;;-145.79;45.71;76393.88;5283452;28;20059;-75
2023/07/12 14:14:22;;;;;;;6.00;2.50;;;;;;;-145.79;45.87;76376.94;5282381;28;20452;-75
2023/07/12 14:16:53;;;;;;;3.78;2.60;;;;;;;-145.79;45.92;76412.97;5283017;28;20051;-72
2023/07/12 14:19:25;;;;;;;3.50;2.13;;;;;;;-145.79;45.96;76404.47;5279839;28;20106;-72
2023/07/12 14:21:56;;;;;;;8.13;4.78;;;;;;;-145.79;46.17;76408.72;5284381;28;20074;-71
2023/07/12 14:24:28;;;;;;;10.85;9.52;;;;;;;-145.79;46.27;76408.72;5282835;28;20032;-72
2023/07/12 14:26:59;;;;;;;3.78;2.60;;;;;;;-145.79;46.43;76412.97;5283357;28;20123;-72
2023/07/12 14:29:31;;;;;;;3.90;2.22;;;;;;;-145.79;45.89;76366.34;5282686;28;20028;-72
2023/07/12 14:32:02;;;;;;;4.13;2.17;;;;;;;-145.79;45.49;76385.41;5283057;28;20085;-72
2023/07/12 14:34:38;;;;;;;3.33;2.58;;;;;;;-145.79;45.96;76415.06;5269557;28;20020;-72
2023/07/12 14:37:22;;;;;;;;;;;;;;;-145.79;45.73;76421.44;5274492;28;20172;-72
2023/07/12 14:39:54;;;;;;;4.18;2.47;;;;;;;-145.79;46.55;76448.97;5277492;28;19970;-73
2023/07/12 14:42:30;;;;;;;5.40;2.22;;;;;;;-145.79;46.95;76442.63;5281607;28;20476;-73
2023/07/12 14:45:02;;;;;;;7.30;3.08;;;;;;;-145.79;46.75;76442.63;5279919;28;20025;-72
2023/07/12 14:47:33;;;;;;;3.80;2.30;;;;;;;-145.79;46.34;76463.81;5276345;28;20379;-72
2023/07/12 14:50:05;;;;;;;4.15;2.50;;;;;;;-145.79;46.70;76465.94;5276955;28;20036;-71
2023/07/12 14:52:37;;;;;;;3.20;2.03;;;;;;;-145.79;47.06;76453.22;5276315;28;20033;-71
2023/07/12 14:55:16;;;;;;;2.80;2.10;;;;;;;-145.79;46.62;76453.22;5280720;28;20094;-72
2023/07/12 14:57:47;;;;;;;4.85;2.13;;;;;;;-145.79;46.58;76457.47;5272549;28;20032;-72
2023/07/12 15:00:23;;;;;;;4.53;2.50;;;;;;;-145.79;46.80;76436.28;5274124;28;20039;-72
2023/07/12 15:02:56;;;;;;;4.60;2.78;;;;;;;-145.79;46.61;76446.88;5281223;28;20029;-72
2023/07/12 15:05:28;;;;;;;4.18;2.20;;;;;;;-145.79;46.39;76465.94;5269431;28;20039;-72
2023/07/12 15:08:00;;;;;;;3.88;2.53;;;;;;;-145.79;46.28;76453.22;5276831;28;20484;-73
2023/07/12 15:10:31;;;;;;;4.22;2.10;;;;;;;-145.79;46.40;76436.28;5281534;28;20057;-72
2023/07/12 15:13:08;;;;;;;24.80;22.35;;;;;;;-145.79;46.77;76465.94;5280592;28;20028;-73
2023/07/12 15:15:40;;;;;;;3.50;2.83;;;;;;;-145.79;46.86;76423.56;5281583;28;20036;-72
2023/07/12 15:18:18;;;;;;;3.55;2.10;;;;;;;-145.79;46.80;76406.59;5281353;28;20036;-73
2023/07/12 15:20:53;;;;;;;3.58;2.15;;;;;;;-145.79;46.47;76398.13;5280482;28;20107;-73
2023/07/12 15:23:32;;;;;;;;;;;;;;;-145.79;45.15;76393.88;5275738;28;20048;-73
2023/07/12 15:26:03;;;;;;;4.95;2.70;;;;;;;-145.79;46.08;76393.88;5277389;28;19943;-73
2023/07/12 15:28:38;;;;;;;3.47;2.08;;;;;;;-145.79;45.93;76427.78;5280836;28;20063;-73
2023/07/12 15:31:29;;;;;;;;;;;;;;;-145.79;45.42;76419.31;5279003;28;20020;-71
2023/07/12 15:34:01;;;;;;;2.70;1.73;;;;;;;-145.79;46.49;76444.75;5270346;28;19925;-74
2023/07/12 15:36:33;;;;;;;4.03;2.17;;;;;;;-145.79;46.61;76423.56;5280216;28;20028;-72
2023/07/12 15:39:04;;;;;;;5.72;2.92;;;;;;;-145.79;46.53;76419.31;5281144;28;20104;-73
2023/07/12 15:41:36;;;;;;;5.03;2.83;;;;;;;-145.79;46.42;76415.06;5280404;28;20032;-72
2023/07/12 15:44:11;;;;;;;6.28;2.42;;;;;;;-145.79;46.47;76406.59;5283445;28;20043;-72
2023/07/12 15:46:42;;;;;;;;;;;;;;;-145.79;46.47;76402.38;5285377;28;20048;-72
2023/07/12 15:49:14;;;;;;;5.70;2.45;;;;;;;-145.79;47.11;76455.34;5275162;28;19964;-72
2023/07/12 15:51:46;;;;;;;4.15;2.10;;;;;;;-145.79;47.40;76444.75;5278809;28;20032;-73
2023/07/12 15:54:26;;;;;;;4.75;2.40;;;;;;;-145.79;47.63;76448.97;5281247;28;20036;-79
2023/07/12 15:56:57;;;;;;;4.30;1.92;;;;;;;-145.79;46.68;76451.09;5283035;28;20048;-80
2023/07/12 15:59:29;;;;;;;6.63;2.70;;;;;;;-145.79;46.45;76461.69;5282899;28;20029;-79
2023/07/12 16:02:00;;;;;;;3.80;1.95;;;;;;;-145.79;45.97;76461.69;5281292;28;20391;-80
2023/07/12 16:04:32;;;;;;;4.97;1.90;;;;;;;-145.79;45.64;76423.56;5285072;28;20041;-78
2023/07/12 16:07:04;;;;;;;4.80;1.85;;;;;;;-145.79;44.97;76415.06;5285969;28;20044;-78
2023/07/12 16:09:35;;;;;;;4.60;1.95;;;;;;;-145.79;45.05;76402.38;5284827;28;20035;-80
2023/07/12 16:12:14;;;;;;;26.15;23.27;;;;;;;-145.79;45.03;76410.84;5284022;28;20037;-80
2023/07/12 16:14:49;;;;;;;6.80;3.47;;;;;;;-145.79;44.71;76412.97;5283279;28;20368;-79
2023/07/12 16:17:23;;;;;;;3.83;2.00;;;;;;;-145.79;44.38;76398.13;5285520;28;20029;-81
2023/07/12 16:19:56;;;;;;;4.75;1.83;;;;;;;-145.79;44.07;76402.38;5289514;28;20043;-81
2023/07/12 16:22:29;;;;;;;5.45;2.95;;;;;;;-145.79;44.03;76381.16;5280299;28;20049;-81
2023/07/12 16:25:02;;;;;;;3.13;1.65;;;;;;;-145.79;43.83;76366.34;5270539;28;20032;-80
2023/07/12 16:27:35;;;;;;;5.30;1.85;;;;;;;-145.79;43.85;76391.78;5279395;28;20086;-80
2023/07/12 16:30:09;;;;;;;4.38;1.75;;;;;;;-145.79;44.27;76410.84;5280435;28;20116;-81
2023/07/12 16:32:44;;;;;;;5.22;2.28;;;;;;;-145.79;44.38;76391.78;5280650;28;20415;-79
2023/07/12 16:35:17;;;;;;;8.05;2.20;;;;;;;-145.79;44.26;76372.69;5269966;28;20028;-81
2023/07/12 16:37:49;;;;;;;3.10;1.67;;;;;;;-145.79;43.79;76366.34;5257170;28;20025;-84
2023/07/12 16:40:21;;;;;;;4.60;1.88;;;;;;;-145.79;43.80;76357.84;5289192;28;20025;-82
2023/07/12 16:42:56;;;;;;;5.68;1.77;;;;;;;-145.79;43.62;76323.97;5284223;28;20060;-81
2023/07/12 16:45:27;;;;;;;3.65;1.70;;;;;;;-145.79;43.36;76338.78;5245654;28;20024;-82
2023/07/12 16:47:59;;;;;;;6.57;1.83;;;;;;;-145.79;43.59;76362.09;5272747;28;20029;-83
2023/07/12 16:50:30;;;;;;;6.75;2.95;;;;;;;-145.79;43.20;76351.50;5291291;28;20029;-81
2023/07/12 16:53:28;;;;;;;18.40;16.50;;;;;;;-145.79;43.50;76313.34;5284641;28;20029;-83
